Time;durP1;ratioP1;P1;durP2;ratioP2;P2;SDS_P1;SDS_P2;PMS_P1;PMS_P2;Temp;Humidity;BMP_temperature;BMP_pressure;BME280_temperature;BME280_humidity;BME280_pressure;Samples;Min_cycle;Max_cycle;Signal;HPM_P1;HPM_P2
2024/02/04 00:01:34;;;;;;;5.60;2.40;;;;;;;;;;5030578;28;20568;-69
2024/02/04 00:04:03;;;;;;;3.40;2.35;;;;;;;;;;5029735;28;20453;-72
2024/02/04 00:06:31;;;;;;;3.45;2.45;;;;;;;;;;5029582;28;20123;-68
2024/02/04 00:09:00;;;;;;;2.35;1.90;;;;;;;;;;5030299;28;20128;-68
2024/02/04 00:11:30;;;;;;;3.63;2.20;;;;;;;;;;5028218;28;20068;-69
2024/02/04 00:13:58;;;;;;;2.35;2.15;;;;;;;;;;5029853;28;20041;-70
2024/02/04 00:16:27;;;;;;;2.65;2.13;;;;;;;;;;5030015;28;20485;-68
2024/02/04 00:18:55;;;;;;;3.22;2.42;;;;;;;;;;5029801;28;20108;-68
2024/02/04 00:21:24;;;;;;;4.05;2.50;;;;;;;;;;5030309;28;20444;-70
2024/02/04 00:23:52;;;;;;;5.88;2.88;;;;;;;;;;5029799;28;20096;-67
2024/02/04 00:26:21;;;;;;;2.53;1.98;;;;;;;;;;5029676;28;20049;-69
2024/02/04 00:28:50;;;;;;;3.05;2.05;;;;;;;;;;5029548;28;20065;-66
2024/02/04 00:31:19;;;;;;;2.88;2.00;;;;;;;;;;5029076;28;20115;-71
2024/02/04 00:33:47;;;;;;;2.83;2.15;;;;;;;;;;5032125;28;20053;-66
2024/02/04 00:36:17;;;;;;;4.15;2.10;;;;;;;;;;5029708;28;20134;-67
2024/02/04 00:38:45;;;;;;;3.28;2.05;;;;;;;;;;5029161;28;20494;-67
2024/02/04 00:41:14;;;;;;;2.03;1.75;;;;;;;;;;5029425;28;20124;-69
2024/02/04 00:43:42;;;;;;;2.67;1.63;;;;;;;;;;5030309;28;20052;-66
2024/02/04 00:46:12;;;;;;;2.72;1.73;;;;;;;;;;5030041;28;20045;-68
2024/02/04 00:48:41;;;;;;;2.08;1.75;;;;;;;;;;5029555;28;20048;-67
2024/02/04 00:51:10;;;;;;;2.13;1.70;;;;;;;;;;5020389;28;20501;-68
2024/02/04 00:53:38;;;;;;;2.58;1.80;;;;;;;;;;5028979;28;20482;-69
2024/02/04 00:56:07;;;;;;;2.42;1.75;;;;;;;;;;5028450;28;20053;-70
2024/02/04 00:58:36;;;;;;;2.05;1.60;;;;;;;;;;5030182;28;20414;-71
2024/02/04 01:01:04;;;;;;;2.53;1.88;;;;;;;;;;5029143;28;20053;-67
2024/02/04 01:03:34;;;;;;;2.13;1.52;;;;;;;;;;5029119;28;20509;-72
2024/02/04 01:06:02;;;;;;;1.90;1.70;;;;;;;;;;5028757;28;20545;-67
2024/02/04 01:08:31;;;;;;;2.30;2.00;;;;;;;;;;5029204;28;20345;-66
2024/02/04 01:10:59;;;;;;;4.63;1.80;;;;;;;;;;5025685;28;20100;-66
2024/02/04 01:13:29;;;;;;;2.40;1.65;;;;;;;;;;5029918;28;20085;-67
2024/02/04 01:15:57;;;;;;;2.75;1.52;;;;;;;;;;5028750;28;20553;-67
2024/02/04 01:18:26;;;;;;;2.53;1.88;;;;;;;;;;5028170;28;20048;-68
2024/02/04 01:20:56;;;;;;;1.63;1.50;;;;;;;;;;5027691;28;20049;-67
2024/02/04 01:23:24;;;;;;;2.50;1.60;;;;;;;;;;5029240;28;20050;-68
2024/02/04 01:25:52;;;;;;;2.45;1.92;;;;;;;;;;5029665;28;20564;-67
2024/02/04 01:28:21;;;;;;;3.63;1.80;;;;;;;;;;5028659;28;20072;-69
2024/02/04 01:30:49;;;;;;;3.88;1.92;;;;;;;;;;5026845;28;20053;-67
2024/02/04 01:33:18;;;;;;;2.47;1.88;;;;;;;;;;5028177;28;20049;-68
2024/02/04 01:35:46;;;;;;;2.95;2.08;;;;;;;;;;5029797;28;20049;-67
2024/02/04 01:38:16;;;;;;;2.50;2.08;;;;;;;;;;5029115;28;20450;-67
2024/02/04 01:40:46;;;;;;;3.28;1.90;;;;;;;;;;5018107;28;20111;-68
2024/02/04 01:43:14;;;;;;;2.70;2.20;;;;;;;;;;5028348;28;20128;-68
2024/02/04 01:45:42;;;;;;;3.10;2.10;;;;;;;;;;5020362;28;20049;-67
2024/02/04 01:48:11;;;;;;;3.97;2.60;;;;;;;;;;5028566;28;20041;-66
2024/02/04 01:50:39;;;;;;;2.47;2.00;;;;;;;;;;5028385;28;20046;-68
2024/02/04 01:53:08;;;;;;;2.50;2.10;;;;;;;;;;5033653;28;20045;-68
2024/02/04 01:55:38;;;;;;;3.03;2.40;;;;;;;;;;5028098;28;20049;-68
2024/02/04 01:58:06;;;;;;;3.08;2.40;;;;;;;;;;5022890;28;20107;-68
2024/02/04 02:00:35;;;;;;;3.28;2.42;;;;;;;;;;5029574;28;20049;-68
2024/02/04 02:03:03;;;;;;;3.55;2.30;;;;;;;;;;5028459;28;20446;-68
2024/02/04 02:05:32;;;;;;;2.20;1.90;;;;;;;;;;5028094;28;20054;-68
2024/02/04 02:08:00;;;;;;;2.42;2.17;;;;;;;;;;5026106;28;20045;-68
2024/02/04 02:10:29;;;;;;;2.08;1.85;;;;;;;;;;5027454;28;20430;-69
2024/02/04 02:13:03;;;;;;;2.53;1.90;;;;;;;;;;5029110;28;20146;-67
2024/02/04 02:15:36;;;;;;;2.63;2.00;;;;;;;;;;5028731;28;20556;-67
2024/02/04 02:18:06;;;;;;;2.92;1.92;;;;;;;;;;5025651;28;20087;-69
2024/02/04 02:20:41;;;;;;;1.77;1.40;;;;;;;;;;5026863;28;20131;-68
2024/02/04 02:23:12;;;;;;;2.00;1.80;;;;;;;;;;5017974;28;20120;-67
2024/02/04 02:25:42;;;;;;;1.70;1.52;;;;;;;;;;5028122;28;20077;-67
2024/02/04 02:28:11;;;;;;;2.13;1.75;;;;;;;;;;5026991;28;20460;-68
2024/02/04 02:30:39;;;;;;;2.90;1.70;;;;;;;;;;5031534;28;20041;-70
2024/02/04 02:33:09;;;;;;;2.65;1.83;;;;;;;;;;5030735;28;20045;-68
2024/02/04 02:35:38;;;;;;;2.00;1.35;;;;;;;;;;5031128;28;20050;-67
2024/02/04 02:38:10;;;;;;;1.98;1.52;;;;;;;;;;5032252;28;20045;-66
2024/02/04 02:40:41;;;;;;;1.90;1.45;;;;;;;;;;5030046;28;20514;-68
2024/02/04 02:43:12;;;;;;;2.83;1.88;;;;;;;;;;5031784;28;20569;-69
2024/02/04 02:45:43;;;;;;;1.98;1.35;;;;;;;;;;5028599;28;20498;-69
2024/02/04 02:48:12;;;;;;;2.05;1.85;;;;;;;;;;5027603;28;20053;-67
2024/02/04 02:50:41;;;;;;;2.90;1.80;;;;;;;;;;5030882;28;20140;-67
2024/02/04 02:53:09;;;;;;;2.08;1.80;;;;;;;;;;5031591;28;20057;-67
2024/02/04 02:55:37;;;;;;;2.72;1.52;;;;;;;;;;5031537;28;20049;-67
2024/02/04 02:58:06;;;;;;;3.80;1.58;;;;;;;;;;5031126;28;20057;-67
2024/02/04 03:00:35;;;;;;;1.75;1.20;;;;;;;;;;5021103;28;20511;-67
2024/02/04 03:03:04;;;;;;;2.65;1.45;;;;;;;;;;5034925;28;20045;-67
2024/02/04 03:05:33;;;;;;;2.42;1.52;;;;;;;;;;5033677;28;20084;-70
2024/02/04 03:08:01;;;;;;;2.92;1.58;;;;;;;;;;5031179;28;20124;-67
2024/02/04 03:10:30;;;;;;;2.88;1.40;;;;;;;;;;5030528;28;20106;-67
2024/02/04 03:12:58;;;;;;;1.60;1.50;;;;;;;;;;5041925;28;20415;-66
2024/02/04 03:15:27;;;;;;;2.15;1.55;;;;;;;;;;5030834;28;20045;-67
2024/02/04 03:17:56;;;;;;;3.63;1.80;;;;;;;;;;5030969;28;20057;-68
2024/02/04 03:20:25;;;;;;;1.80;1.50;;;;;;;;;;5028496;28;20061;-69
2024/02/04 03:22:53;;;;;;;2.03;1.60;;;;;;;;;;5031472;28;20054;-69
2024/02/04 03:25:23;;;;;;;1.42;1.30;;;;;;;;;;5030820;28;20546;-70
2024/02/04 03:27:52;;;;;;;1.65;1.23;;;;;;;;;;5025556;28;20049;-67
2024/02/04 03:30:21;;;;;;;1.65;1.42;;;;;;;;;;5029856;28;20060;-68
2024/02/04 03:32:49;;;;;;;1.40;1.20;;;;;;;;;;5030994;28;20045;-67
2024/02/04 03:35:19;;;;;;;2.20;1.60;;;;;;;;;;5029821;28;20139;-70
2024/02/04 03:37:47;;;;;;;2.50;1.40;;;;;;;;;;5029660;28;20473;-67
2024/02/04 03:40:17;;;;;;;2.03;1.50;;;;;;;;;;5030382;28;20057;-69
2024/02/04 03:42:46;;;;;;;2.40;1.55;;;;;;;;;;5030330;28;20061;-71
2024/02/04 03:45:14;;;;;;;1.90;1.40;;;;;;;;;;5030307;28;20048;-69
2024/02/04 03:47:43;;;;;;;1.48;1.20;;;;;;;;;;5029892;28;20046;-68
2024/02/04 03:50:11;;;;;;;2.42;1.50;;;;;;;;;;5029992;28;20410;-70
2024/02/04 03:52:43;;;;;;;2.30;1.50;;;;;;;;;;5031146;28;20045;-68
2024/02/04 03:55:11;;;;;;;2.33;1.63;;;;;;;;;;5028621;28;20494;-68
2024/02/04 03:57:40;;;;;;;2.10;1.42;;;;;;;;;;5028962;28;20068;-70
2024/02/04 04:00:09;;;;;;;1.30;1.10;;;;;;;;;;5029334;28;20141;-69
2024/02/04 04:02:37;;;;;;;1.55;1.30;;;;;;;;;;5030770;28;20049;-68
2024/02/04 04:05:06;;;;;;;2.03;1.55;;;;;;;;;;5023528;28;20064;-68
2024/02/04 04:07:35;;;;;;;1.40;1.27;;;;;;;;;;5025385;28;20046;-68
2024/02/04 04:10:05;;;;;;;2.40;1.83;;;;;;;;;;5029390;28;20056;-69
2024/02/04 04:12:34;;;;;;;1.60;1.40;;;;;;;;;;5029668;28;20046;-67
2024/02/04 04:15:02;;;;;;;1.23;1.13;;;;;;;;;;5030471;28;20046;-67
2024/02/04 04:17:31;;;;;;;1.63;1.30;;;;;;;;;;5025941;28;20042;-68
2024/02/04 04:19:59;;;;;;;2.03;1.50;;;;;;;;;;5029828;28;20076;-69
2024/02/04 04:22:28;;;;;;;1.50;1.23;;;;;;;;;;5030782;28;20129;-68
2024/02/04 04:24:56;;;;;;;1.77;1.38;;;;;;;;;;5029398;28;20064;-68
2024/02/04 04:27:26;;;;;;;2.50;1.77;;;;;;;;;;5029859;28;20572;-67
2024/02/04 04:29:54;;;;;;;2.72;1.67;;;;;;;;;;5024274;28;20418;-67
2024/02/04 04:32:23;;;;;;;1.70;1.52;;;;;;;;;;5030226;28;20498;-68
2024/02/04 04:34:51;;;;;;;1.98;1.40;;;;;;;;;;5029747;28;20049;-69
2024/02/04 04:37:19;;;;;;;1.40;1.30;;;;;;;;;;5030089;28;20148;-68
2024/02/04 04:39:48;;;;;;;2.08;1.38;;;;;;;;;;5030007;28;20709;-67
2024/02/04 04:42:16;;;;;;;1.63;1.30;;;;;;;;;;5030772;28;20044;-68
2024/02/04 04:44:46;;;;;;;1.50;1.20;;;;;;;;;;5025246;28;20041;-66
2024/02/04 04:47:16;;;;;;;1.70;1.33;;;;;;;;;;5028636;28;20117;-67
2024/02/04 04:49:45;;;;;;;2.03;1.35;;;;;;;;;;5031331;28;20042;-69
2024/02/04 04:52:13;;;;;;;1.23;1.02;;;;;;;;;;5029368;28;20045;-67
2024/02/04 04:54:42;;;;;;;1.52;1.33;;;;;;;;;;5030210;28;20140;-67
2024/02/04 04:57:11;;;;;;;1.30;1.10;;;;;;;;;;5030200;28;20128;-67
2024/02/04 04:59:39;;;;;;;1.38;1.27;;;;;;;;;;5032191;28;20415;-68
2024/02/04 05:02:10;;;;;;;1.58;1.20;;;;;;;;;;5030748;28;20140;-67
2024/02/04 05:04:38;;;;;;;1.90;1.70;;;;;;;;;;5027203;28;20045;-68
2024/02/04 05:07:07;;;;;;;1.75;1.42;;;;;;;;;;5029631;28;20077;-68
2024/02/04 05:09:36;;;;;;;2.15;1.42;;;;;;;;;;5028654;28;20049;-68
2024/02/04 05:12:04;;;;;;;1.55;1.33;;;;;;;;;;5028708;28;20048;-67
2024/02/04 05:14:33;;;;;;;1.98;1.70;;;;;;;;;;5028498;28;20091;-67
2024/02/04 05:17:01;;;;;;;1.63;1.40;;;;;;;;;;5024587;28;20534;-68
2024/02/04 05:19:31;;;;;;;1.42;1.23;;;;;;;;;;5028851;28;20054;-67
2024/02/04 05:22:00;;;;;;;1.58;1.48;;;;;;;;;;5029583;28;20103;-70
2024/02/04 05:24:28;;;;;;;1.20;1.10;;;;;;;;;;5028575;28;20242;-68
2024/02/04 05:26:56;;;;;;;3.17;1.25;;;;;;;;;;5027656;28;20514;-67
2024/02/04 05:29:25;;;;;;;1.27;1.00;;;;;;;;;;5019711;28;20049;-66
2024/02/04 05:31:53;;;;;;;2.15;1.10;;;;;;;;;;5027682;28;20057;-66
2024/02/04 05:34:21;;;;;;;1.50;1.08;;;;;;;;;;5029129;28;20056;-66
2024/02/04 05:36:51;;;;;;;1.13;0.90;;;;;;;;;;5028519;28;20072;-68
2024/02/04 05:39:20;;;;;;;1.10;1.00;;;;;;;;;;5028188;28;20045;-67
2024/02/04 05:41:48;;;;;;;2.72;1.20;;;;;;;;;;5029007;28;20049;-67
2024/02/04 05:44:17;;;;;;;1.42;1.00;;;;;;;;;;5029080;28;20061;-68
2024/02/04 05:46:45;;;;;;;1.20;1.10;;;;;;;;;;5027074;28;20107;-68
2024/02/04 05:49:14;;;;;;;3.63;1.35;;;;;;;;;;5028112;28;20049;-70
2024/02/04 05:51:43;;;;;;;1.45;1.33;;;;;;;;;;5024368;28;20434;-68
2024/02/04 05:54:13;;;;;;;3.53;1.40;;;;;;;;;;5028012;28;20553;-67
2024/02/04 05:56:41;;;;;;;1.35;1.08;;;;;;;;;;5028201;28;20545;-68
2024/02/04 05:59:09;;;;;;;3.08;1.40;;;;;;;;;;5026996;28;20085;-68
2024/02/04 06:01:38;;;;;;;2.03;1.33;;;;;;;;;;5026014;28;20556;-69
2024/02/04 06:04:06;;;;;;;6.10;1.60;;;;;;;;;;5028043;28;20073;-68
2024/02/04 06:06:35;;;;;;;2.55;1.52;;;;;;;;;;5020571;28;20079;-69
2024/02/04 06:09:03;;;;;;;2.65;1.45;;;;;;;;;;5028293;28;20064;-68
2024/02/04 06:11:33;;;;;;;3.08;1.60;;;;;;;;;;5027080;28;20525;-67
2024/02/04 06:14:01;;;;;;;2.25;1.23;;;;;;;;;;5027181;28;20130;-69
2024/02/04 06:16:30;;;;;;;1.83;1.60;;;;;;;;;;5027330;28;20448;-68
2024/02/04 06:18:59;;;;;;;2.42;1.35;;;;;;;;;;5027965;28;20103;-69
2024/02/04 06:21:28;;;;;;;2.17;1.42;;;;;;;;;;5029349;28;20061;-68
2024/02/04 06:23:56;;;;;;;3.60;1.80;;;;;;;;;;5028759;28;20822;-69
2024/02/04 06:26:25;;;;;;;2.67;1.73;;;;;;;;;;5026197;28;20100;-68
2024/02/04 06:28:55;;;;;;;2.28;1.50;;;;;;;;;;5026634;28;20540;-69
2024/02/04 06:31:23;;;;;;;3.33;1.33;;;;;;;;;;5024453;28;20107;-69
2024/02/04 06:33:52;;;;;;;3.47;1.63;;;;;;;;;;5025911;28;20447;-68
2024/02/04 06:36:21;;;;;;;4.07;1.20;;;;;;;;;;5026308;28;20483;-69
2024/02/04 06:38:49;;;;;;;3.20;1.33;;;;;;;;;;5028653;28;20491;-69
2024/02/04 06:41:17;;;;;;;2.15;1.58;;;;;;;;;;5027106;28;20045;-69
2024/02/04 06:43:46;;;;;;;1.90;1.33;;;;;;;;;;5027518;28;20091;-69
2024/02/04 06:46:25;;;;;;;2.17;1.30;;;;;;;;;;5026614;28;20057;-68
2024/02/04 06:48:53;;;;;;;2.58;1.67;;;;;;;;;;5027004;28;20409;-68
2024/02/04 06:51:21;;;;;;;1.48;1.05;;;;;;;;;;5026902;28;20104;-71
2024/02/04 06:53:50;;;;;;;1.70;1.35;;;;;;;;;;5026282;28;20041;-70
2024/02/04 06:56:18;;;;;;;1.80;1.30;;;;;;;;;;5027542;28;20454;-71
2024/02/04 06:58:47;;;;;;;3.75;1.33;;;;;;;;;;5027473;28;20465;-71
2024/02/04 07:01:16;;;;;;;2.45;1.40;;;;;;;;;;5029227;28;20088;-70
2024/02/04 07:03:45;;;;;;;1.55;1.35;;;;;;;;;;5027787;28;20561;-71
2024/02/04 07:06:13;;;;;;;2.10;1.65;;;;;;;;;;5025649;28;20065;-71
2024/02/04 07:08:42;;;;;;;3.42;1.88;;;;;;;;;;5027413;28;20060;-69
2024/02/04 07:11:10;;;;;;;4.38;2.22;;;;;;;;;;5027770;28;20045;-69
2024/02/04 07:13:39;;;;;;;4.07;1.60;;;;;;;;;;5030930;28;20148;-70
2024/02/04 07:16:07;;;;;;;4.07;2.22;;;;;;;;;;5030711;28;20457;-70
2024/02/04 07:18:37;;;;;;;2.65;1.52;;;;;;;;;;5030297;28;20133;-70
2024/02/04 07:21:06;;;;;;;2.53;1.83;;;;;;;;;;5030610;28;20077;-72
2024/02/04 07:23:34;;;;;;;2.35;1.70;;;;;;;;;;5032475;28;20064;-71
2024/02/04 07:26:02;;;;;;;2.50;1.67;;;;;;;;;;5023682;28;20129;-70
2024/02/04 07:28:31;;;;;;;3.85;2.22;;;;;;;;;;5034608;28;20056;-71
2024/02/04 07:30:59;;;;;;;2.90;2.00;;;;;;;;;;5033712;28;20053;-70
2024/02/04 07:33:28;;;;;;;3.80;2.10;;;;;;;;;;5031183;28;20055;-70
2024/02/04 07:36:01;;;;;;;2.80;2.15;;;;;;;;;;5031236;28;20057;-70
2024/02/04 07:38:30;;;;;;;3.83;1.70;;;;;;;;;;5030691;28;20069;-69
2024/02/04 07:40:59;;;;;;;5.22;1.75;;;;;;;;;;5029130;28;20057;-69
2024/02/04 07:43:27;;;;;;;2.40;1.75;;;;;;;;;;5031616;28;20061;-70
2024/02/04 07:45:56;;;;;;;4.68;2.38;;;;;;;;;;5028319;28;20729;-70
2024/02/04 07:48:26;;;;;;;2.38;1.80;;;;;;;;;;5030298;28;20057;-67
2024/02/04 07:50:55;;;;;;;4.63;1.80;;;;;;;;;;5031166;28;20057;-65
2024/02/04 07:53:25;;;;;;;2.35;1.77;;;;;;;;;;5027556;28;20056;-67
2024/02/04 07:55:53;;;;;;;3.00;1.85;;;;;;;;;;5030322;28;20270;-67
2024/02/04 07:58:21;;;;;;;4.70;1.80;;;;;;;;;;5030304;28;20057;-67
2024/02/04 08:00:50;;;;;;;2.55;2.00;;;;;;;;;;5022800;28;20103;-68
2024/02/04 08:03:18;;;;;;;2.55;1.67;;;;;;;;;;5030007;28;20136;-68
2024/02/04 08:05:47;;;;;;;2.03;1.50;;;;;;;;;;5027632;28;20111;-67
2024/02/04 08:08:15;;;;;;;2.17;1.88;;;;;;;;;;5028020;28;20103;-69
2024/02/04 08:10:45;;;;;;;2.38;1.73;;;;;;;;;;5025387;28;20057;-67
2024/02/04 08:13:14;;;;;;;3.38;1.38;;;;;;;;;;5031420;28;20057;-67
2024/02/04 08:15:42;;;;;;;3.13;1.65;;;;;;;;;;5029832;28;20047;-68
2024/02/04 08:18:09;;;;;;;3.83;1.42;;;;;;;;;;5025357;28;20049;-69
2024/02/04 08:20:38;;;;;;;1.92;1.13;;;;;;;;;;5027729;28;20037;-68
2024/02/04 08:23:07;;;;;;;2.83;1.60;;;;;;;;;;5029348;28;20053;-68
2024/02/04 08:25:36;;;;;;;2.83;1.80;;;;;;;;;;5027797;28;20532;-67
2024/02/04 08:28:06;;;;;;;2.47;1.30;;;;;;;;;;5028494;28;20057;-68
2024/02/04 08:30:35;;;;;;;2.35;1.40;;;;;;;;;;5029563;28;20088;-68
2024/02/04 08:33:04;;;;;;;3.33;1.48;;;;;;;;;;5024689;28;20048;-68
2024/02/04 08:35:33;;;;;;;2.55;1.58;;;;;;;;;;5026005;28;20084;-67
2024/02/04 08:38:01;;;;;;;4.80;1.50;;;;;;;;;;5029289;28;20042;-68
2024/02/04 08:40:29;;;;;;;3.08;1.20;;;;;;;;;;5030992;28;20054;-68
2024/02/04 08:42:58;;;;;;;1.65;1.23;;;;;;;;;;5028342;28;20394;-68
2024/02/04 08:45:28;;;;;;;3.03;1.30;;;;;;;;;;5026332;28;20136;-68
2024/02/04 08:47:56;;;;;;;1.30;0.90;;;;;;;;;;5027400;28;20136;-68
2024/02/04 08:50:24;;;;;;;1.38;1.10;;;;;;;;;;5035127;28;20132;-67
2024/02/04 08:52:53;;;;;;;2.72;1.48;;;;;;;;;;5031071;28;20054;-68
2024/02/04 08:55:21;;;;;;;2.40;1.20;;;;;;;;;;5029982;28;20057;-68
2024/02/04 08:57:50;;;;;;;2.13;1.50;;;;;;;;;;5029723;28;20429;-68
2024/02/04 09:00:19;;;;;;;5.20;1.38;;;;;;;;;;5026814;28;20049;-68
2024/02/04 09:02:49;;;;;;;4.88;1.42;;;;;;;;;;5027888;28;20080;-68
2024/02/04 09:05:18;;;;;;;1.73;0.98;;;;;;;;;;5028772;28;20053;-68
2024/02/04 09:07:46;;;;;;;1.90;0.90;;;;;;;;;;5028633;28;20450;-68
2024/02/04 09:10:15;;;;;;;1.98;1.10;;;;;;;;;;5027684;28;20136;-69
2024/02/04 09:12:43;;;;;;;1.73;1.17;;;;;;;;;;5029297;28;20111;-69
2024/02/04 09:15:12;;;;;;;2.10;1.02;;;;;;;;;;5029791;28;20128;-67
2024/02/04 09:17:41;;;;;;;1.08;0.88;;;;;;;;;;5030393;28;20049;-68
2024/02/04 09:20:11;;;;;;;5.13;1.02;;;;;;;;;;5029489;28;20045;-68
2024/02/04 09:22:40;;;;;;;2.83;1.20;;;;;;;;;;5032730;28;20049;-69
2024/02/04 09:25:09;;;;;;;1.58;0.80;;;;;;;;;;5028689;28;20049;-69
2024/02/04 09:27:38;;;;;;;1.98;1.00;;;;;;;;;;5029815;28;20148;-68
2024/02/04 09:30:07;;;;;;;1.33;0.90;;;;;;;;;;5028965;28;20124;-67
2024/02/04 09:32:35;;;;;;;2.60;1.08;;;;;;;;;;5030484;28;20045;-69
2024/02/04 09:35:04;;;;;;;1.77;1.10;;;;;;;;;;5028637;28;20080;-68
2024/02/04 09:37:35;;;;;;;2.83;1.20;;;;;;;;;;5028003;28;20122;-68
2024/02/04 09:40:04;;;;;;;1.88;1.13;;;;;;;;;;5029202;28;20046;-67
2024/02/04 09:42:33;;;;;;;2.10;1.40;;;;;;;;;;5020292;28;20049;-68
2024/02/04 09:45:02;;;;;;;4.00;1.35;;;;;;;;;;5027004;28;20052;-71
2024/02/04 09:47:30;;;;;;;2.72;1.65;;;;;;;;;;5026125;28;20100;-68
2024/02/04 09:49:59;;;;;;;3.72;1.67;;;;;;;;;;5028588;28;20477;-67
2024/02/04 09:52:31;;;;;;;2.42;1.08;;;;;;;;;;5027512;28;20052;-69
2024/02/04 09:55:03;;;;;;;2.78;1.25;;;;;;;;;;5023188;28;20151;-68
2024/02/04 09:57:32;;;;;;;3.10;1.40;;;;;;;;;;5025297;28;20037;-69
2024/02/04 10:00:00;;;;;;;2.65;1.50;;;;;;;;;;5025106;28;20103;-68
2024/02/04 10:02:29;;;;;;;3.58;0.95;;;;;;;;;;5025838;28;20088;-68
2024/02/04 10:04:58;;;;;;;2.20;1.38;;;;;;;;;;5024120;28;20556;-67
2024/02/04 10:07:26;;;;;;;1.30;1.08;;;;;;;;;;5026510;28;20065;-70
2024/02/04 10:09:55;;;;;;;1.40;1.13;;;;;;;;;;5024116;28;20144;-68
2024/02/04 10:12:25;;;;;;;1.67;1.30;;;;;;;;;;5026181;28;20052;-68
2024/02/04 10:14:54;;;;;;;3.63;1.25;;;;;;;;;;5025950;28;20506;-68
2024/02/04 10:17:23;;;;;;;1.40;1.00;;;;;;;;;;5024386;28;20475;-66
2024/02/04 10:19:51;;;;;;;3.15;1.48;;;;;;;;;;5024494;28;20050;-68
2024/02/04 10:22:20;;;;;;;1.90;1.13;;;;;;;;;;5020474;28;20141;-67
2024/02/04 10:24:48;;;;;;;1.77;1.20;;;;;;;;;;5027231;28;20053;-67
2024/02/04 10:27:17;;;;;;;1.83;1.40;;;;;;;;;;5024511;28;20066;-69
2024/02/04 10:30:01;;;;;;;1.85;1.13;;;;;;;;;;5024715;28;20409;-69
2024/02/04 10:32:29;;;;;;;3.22;1.23;;;;;;;;;;5025623;28;20045;-67
2024/02/04 10:34:59;;;;;;;1.45;1.30;;;;;;;;;;5028961;28;20046;-70
2024/02/04 10:37:28;;;;;;;2.22;1.52;;;;;;;;;;5022268;28;20049;-68
2024/02/04 10:39:58;;;;;;;2.75;1.40;;;;;;;;;;5025032;28;20426;-71
2024/02/04 10:42:28;;;;;;;1.83;1.17;;;;;;;;;;5022641;28;20049;-69
2024/02/04 10:44:58;;;;;;;1.73;1.40;;;;;;;;;;5029142;28;20045;-67
2024/02/04 10:47:32;;;;;;;1.38;1.13;;;;;;;;;;5028588;28;20053;-69
2024/02/04 10:50:02;;;;;;;1.70;1.15;;;;;;;;;;5031871;28;20149;-66
2024/02/04 10:52:34;;;;;;;1.85;1.27;;;;;;;;;;5032466;28;20045;-71
2024/02/04 10:55:03;;;;;;;1.73;1.10;;;;;;;;;;5031464;28;20048;-69
2024/02/04 10:57:32;;;;;;;3.00;1.35;;;;;;;;;;5030083;28;20053;-69
2024/02/04 11:00:04;;;;;;;3.72;1.13;;;;;;;;;;5031217;28;20136;-68
2024/02/04 11:02:35;;;;;;;1.73;1.13;;;;;;;;;;5029640;28;20459;-69
2024/02/04 11:05:04;;;;;;;2.10;1.30;;;;;;;;;;5029177;28;20049;-68
2024/02/04 11:07:34;;;;;;;2.97;1.17;;;;;;;;;;5030721;28;20084;-66
2024/02/04 11:10:03;;;;;;;2.40;1.38;;;;;;;;;;5031411;28;20046;-67
2024/02/04 11:12:32;;;;;;;1.55;1.20;;;;;;;;;;5030493;28;20447;-68
2024/02/04 11:15:04;;;;;;;2.95;1.20;;;;;;;;;;5031910;28;20518;-66
2024/02/04 11:17:44;;;;;;;1.83;1.38;;;;;;;;;;5029800;28;20049;-67
2024/02/04 11:20:20;;;;;;;1.83;1.15;;;;;;;;;;5030686;28;20103;-67
2024/02/04 11:23:06;;;;;;;3.80;1.05;;;;;;;;;;5029919;28;20077;-68
2024/02/04 11:25:44;;;;;;;2.22;1.00;;;;;;;;;;5027690;28;20081;-67
2024/02/04 11:28:13;;;;;;;0.70;0.70;;;;;;;;;;5027852;28;20049;-67
2024/02/04 11:30:42;;;;;;;0.88;0.80;;;;;;;;;;5029346;28;20056;-67
2024/02/04 11:33:12;;;;;;;0.90;0.80;;;;;;;;;;5028943;28;20099;-68
2024/02/04 11:35:41;;;;;;;2.25;1.00;;;;;;;;;;5028549;28;20136;-67
2024/02/04 11:38:10;;;;;;;1.60;0.95;;;;;;;;;;5027159;28;20041;-69
2024/02/04 11:40:39;;;;;;;2.45;0.90;;;;;;;;;;5029773;28;20074;-68
2024/02/04 11:43:08;;;;;;;2.45;1.17;;;;;;;;;;5027955;28;20052;-67
2024/02/04 11:45:39;;;;;;;2.25;0.90;;;;;;;;;;5028021;28;20092;-71
2024/02/04 11:48:09;;;;;;;1.42;0.80;;;;;;;;;;5030271;28;20593;-66
2024/02/04 11:50:40;;;;;;;0.90;0.60;;;;;;;;;;5029850;28;20053;-66
2024/02/04 11:53:10;;;;;;;1.00;0.85;;;;;;;;;;5024393;28;20085;-72
2024/02/04 11:55:40;;;;;;;0.82;0.65;;;;;;;;;;5026192;28;20048;-71
2024/02/04 11:58:13;;;;;;;0.90;0.75;;;;;;;;;;5027645;28;20081;-68
2024/02/04 12:00:44;;;;;;;0.77;0.70;;;;;;;;;;5027255;28;20042;-66
2024/02/04 12:03:13;;;;;;;2.17;0.98;;;;;;;;;;5029340;28;20049;-67
2024/02/04 12:05:44;;;;;;;1.10;0.80;;;;;;;;;;5026548;28;20477;-69
2024/02/04 12:08:13;;;;;;;1.80;0.70;;;;;;;;;;5029000;28;20041;-67
2024/02/04 12:10:42;;;;;;;1.27;0.82;;;;;;;;;;5027756;28;20046;-67
2024/02/04 12:13:10;;;;;;;2.15;0.70;;;;;;;;;;5029901;28;20375;-67
2024/02/04 12:15:39;;;;;;;1.50;0.70;;;;;;;;;;5024670;28;20132;-67
2024/02/04 12:18:08;;;;;;;2.55;0.90;;;;;;;;;;5029381;28;20117;-66
2024/02/04 12:20:37;;;;;;;0.90;0.70;;;;;;;;;;5028001;28;20052;-70
2024/02/04 12:23:08;;;;;;;2.28;0.75;;;;;;;;;;5026588;28;20278;-67
2024/02/04 12:25:36;;;;;;;1.30;0.80;;;;;;;;;;5025891;28;20049;-65
2024/02/04 12:28:10;;;;;;;1.35;0.90;;;;;;;;;;5029395;28;20057;-66
2024/02/04 12:30:38;;;;;;;0.77;0.68;;;;;;;;;;5026542;28;20521;-67
2024/02/04 12:33:08;;;;;;;1.77;0.60;;;;;;;;;;5026076;28;20498;-67
2024/02/04 12:35:38;;;;;;;1.10;0.82;;;;;;;;;;5026467;28;20049;-66
2024/02/04 12:38:08;;;;;;;2.00;1.10;;;;;;;;;;5030196;28;20124;-66
2024/02/04 12:40:36;;;;;;;4.28;0.77;;;;;;;;;;5036103;28;20041;-65
2024/02/04 12:43:05;;;;;;;2.53;0.80;;;;;;;;;;5028843;28;20119;-67
2024/02/04 12:45:34;;;;;;;2.75;0.80;;;;;;;;;;5026675;28;20049;-67
2024/02/04 12:48:03;;;;;;;0.90;0.75;;;;;;;;;;5029846;28;20486;-67
2024/02/04 12:50:33;;;;;;;1.98;1.05;;;;;;;;;;5029159;28;20119;-65
2024/02/04 12:53:05;;;;;;;0.80;0.70;;;;;;;;;;5029497;28;20092;-66
2024/02/04 12:55:36;;;;;;;1.48;0.80;;;;;;;;;;5027491;28;20057;-66
2024/02/04 12:58:05;;;;;;;2.50;0.85;;;;;;;;;;5029019;28;20049;-68
2024/02/04 13:00:34;;;;;;;1.48;0.80;;;;;;;;;;5019849;28;20107;-66
2024/02/04 13:03:03;;;;;;;2.25;0.80;;;;;;;;;;5028638;28;20041;-66
2024/02/04 13:05:32;;;;;;;3.10;0.90;;;;;;;;;;5027229;28;20430;-63
2024/02/04 13:08:02;;;;;;;0.75;0.73;;;;;;;;;;5026623;28;20054;-66
2024/02/04 13:10:33;;;;;;;0.98;0.80;;;;;;;;;;5024668;28;20053;-66
2024/02/04 13:13:05;;;;;;;1.27;0.90;;;;;;;;;;5028798;28;20049;-66
2024/02/04 13:15:34;;;;;;;0.90;0.80;;;;;;;;;;5029547;28;20054;-66
2024/02/04 13:18:02;;;;;;;1.48;0.70;;;;;;;;;;5034742;28;20042;-66
2024/02/04 13:20:31;;;;;;;1.90;0.90;;;;;;;;;;5028254;28;20057;-67
2024/02/04 13:23:00;;;;;;;4.57;0.93;;;;;;;;;;5029107;28;20445;-68
2024/02/04 13:25:28;;;;;;;2.00;0.77;;;;;;;;;;5019463;28;20053;-66
2024/02/04 13:27:57;;;;;;;0.90;0.80;;;;;;;;;;5028859;28;20060;-66
2024/02/04 13:30:27;;;;;;;2.05;0.70;;;;;;;;;;5028531;28;20041;-67
2024/02/04 13:32:56;;;;;;;0.88;0.68;;;;;;;;;;5015979;28;20149;-70
2024/02/04 13:35:25;;;;;;;1.67;0.90;;;;;;;;;;5020349;28;20162;-67
2024/02/04 13:37:55;;;;;;;2.65;1.00;;;;;;;;;;5019452;28;20427;-66
2024/02/04 13:40:24;;;;;;;2.75;1.10;;;;;;;;;;5024980;28;20049;-65
2024/02/04 13:42:53;;;;;;;1.73;0.90;;;;;;;;;;5025044;28;20073;-67
2024/02/04 13:45:22;;;;;;;1.70;0.90;;;;;;;;;;5027155;28;20057;-66
2024/02/04 13:47:52;;;;;;;1.00;0.80;;;;;;;;;;5024654;28;20049;-67
2024/02/04 13:50:20;;;;;;;2.15;1.48;;;;;;;;;;5021925;28;20041;-68
2024/02/04 13:52:49;;;;;;;1.77;1.00;;;;;;;;;;5024556;28;20049;-66
2024/02/04 13:55:18;;;;;;;2.65;1.27;;;;;;;;;;5022704;28;20096;-67
2024/02/04 13:57:46;;;;;;;1.08;0.90;;;;;;;;;;5026214;28;20092;-66
2024/02/04 14:00:15;;;;;;;1.40;1.00;;;;;;;;;;5024921;28;20049;-66
2024/02/04 14:02:43;;;;;;;1.75;1.13;;;;;;;;;;5026734;28;20131;-66
2024/02/04 14:05:13;;;;;;;2.83;1.00;;;;;;;;;;5020628;28;20534;-65
2024/02/04 14:07:42;;;;;;;1.75;0.90;;;;;;;;;;5022837;28;20050;-65
2024/02/04 14:10:11;;;;;;;2.40;1.08;;;;;;;;;;5023407;28;20556;-65
2024/02/04 14:12:41;;;;;;;1.50;1.00;;;;;;;;;;5022496;28;20049;-67
2024/02/04 14:15:10;;;;;;;0.88;0.80;;;;;;;;;;5025041;28;20041;-67
2024/02/04 14:17:38;;;;;;;3.38;1.17;;;;;;;;;;5021328;28;20487;-65
2024/02/04 14:20:09;;;;;;;1.10;0.80;;;;;;;;;;5020939;28;20406;-67
2024/02/04 14:22:39;;;;;;;0.93;0.82;;;;;;;;;;5026146;28;20099;-67
2024/02/04 14:25:07;;;;;;;2.63;0.95;;;;;;;;;;5030838;28;20045;-66
2024/02/04 14:27:36;;;;;;;2.45;0.90;;;;;;;;;;5030300;28;20042;-66
2024/02/04 14:30:06;;;;;;;5.75;1.45;;;;;;;;;;5027394;28;20062;-66
2024/02/04 14:32:35;;;;;;;3.30;0.90;;;;;;;;;;5027285;28;20052;-67
2024/02/04 14:35:04;;;;;;;3.42;0.88;;;;;;;;;;5023962;28;20053;-68
2024/02/04 14:37:33;;;;;;;1.67;1.10;;;;;;;;;;5027777;28;20360;-69
2024/02/04 14:40:03;;;;;;;3.22;1.02;;;;;;;;;;5027456;28;20057;-67
2024/02/04 14:42:32;;;;;;;3.35;1.00;;;;;;;;;;5030642;28;20068;-66
2024/02/04 14:45:00;;;;;;;1.77;0.90;;;;;;;;;;5028192;28;20050;-66
2024/02/04 14:47:29;;;;;;;2.40;0.98;;;;;;;;;;5018368;28;20217;-67
2024/02/04 14:49:57;;;;;;;3.80;1.00;;;;;;;;;;5028961;28;20049;-68
2024/02/04 14:52:26;;;;;;;1.20;0.93;;;;;;;;;;5025735;28;20049;-68
2024/02/04 14:54:54;;;;;;;1.58;0.93;;;;;;;;;;5026119;28;20049;-67